Time;durP1;ratioP1;P1;durP2;ratioP2;P2;SDS_P1;SDS_P2;PMS_P1;PMS_P2;Temp;Humidity;BMP_temperature;BMP_pressure;BME280_temperature;BME280_humidity;BME280_pressure;Samples;Min_cycle;Max_cycle;Signal;HPM_P1;HPM_P2
2022/05/31 00:01:39;;;;;;;4.32;3.12;;;;;;;14.03;65.04;99776.69;4361984;32;34112;-69
2022/05/31 00:04:07;;;;;;;4.60;2.97;;;;;;;14.21;64.09;99786.28;4348715;32;34126;-69
2022/05/31 00:06:34;;;;;;;3.92;2.70;;;;;;;14.13;64.32;99784.91;4362688;32;35161;-69
2022/05/31 00:09:02;;;;;;;4.47;3.20;;;;;;;14.15;64.27;99771.81;4361951;32;33955;-69
2022/05/31 00:11:30;;;;;;;3.50;2.80;;;;;;;13.97;64.49;99763.34;4362053;32;33562;-69
2022/05/31 00:13:57;;;;;;;3.45;2.20;;;;;;;14.05;64.45;99754.63;4362198;32;33757;-70
2022/05/31 00:16:25;;;;;;;3.78;2.70;;;;;;;14.04;64.49;99764.72;4361738;32;34196;-68
2022/05/31 00:18:53;;;;;;;3.58;2.80;;;;;;;14.02;64.57;99766.91;4362029;32;33955;-69
2022/05/31 00:21:24;;;;;;;3.95;2.83;;;;;;;13.93;64.74;99769.34;4362177;32;33766;-71
2022/05/31 00:23:51;;;;;;;3.40;2.50;;;;;;;14.03;64.76;99776.69;4361905;32;34752;-68
2022/05/31 00:26:19;;;;;;;4.25;2.95;;;;;;;14.06;64.65;99776.19;4348377;32;33993;-69
2022/05/31 00:28:47;;;;;;;4.68;2.95;;;;;;;13.94;64.99;99779.16;4361773;32;33983;-69
2022/05/31 00:31:14;;;;;;;3.60;2.60;;;;;;;13.68;66.00;99778.28;4361753;32;33484;-69
2022/05/31 00:33:42;;;;;;;4.18;2.42;;;;;;;13.29;67.24;99781.41;4361688;32;34493;-67
2022/05/31 00:36:09;;;;;;;4.18;2.62;;;;;;;13.53;66.51;99784.50;4362224;32;35129;-68
2022/05/31 00:38:36;;;;;;;3.35;2.60;;;;;;;13.44;66.79;99790.75;4361647;32;33965;-69
2022/05/31 00:41:24;;;;;;;3.17;2.85;;;;;;;13.52;66.40;99788.31;4348066;32;34376;-67
2022/05/31 00:44:02;;;;;;;5.00;2.70;;;;;;;13.59;66.14;99785.34;4361999;32;33970;-69
2022/05/31 00:46:41;;;;;;;3.50;2.80;;;;;;;13.48;66.60;99800.03;4361847;32;34207;-68
2022/05/31 00:49:11;;;;;;;4.62;2.67;;;;;;;13.49;66.55;99797.00;4348378;32;33836;-69
2022/05/31 00:51:42;;;;;;;4.12;2.47;;;;;;;13.66;65.46;99796.00;4348038;32;34071;-69
2022/05/31 00:54:14;;;;;;;3.35;2.55;;;;;;;13.67;65.00;99803.91;4361428;32;33825;-67
2022/05/31 00:56:43;;;;;;;4.70;2.58;;;;;;;13.89;64.19;99806.41;4348022;32;35045;-69
2022/05/31 00:59:24;;;;;;;5.07;2.97;;;;;;;13.96;64.11;99814.34;4349327;32;33647;-67
2022/05/31 01:01:53;;;;;;;3.53;2.70;;;;;;;13.90;64.65;99810.78;4363357;32;33490;-67
2022/05/31 01:04:30;;;;;;;3.58;2.50;;;;;;;13.33;66.23;99798.88;4350770;32;33798;-69
2022/05/31 01:06:58;;;;;;;3.45;2.65;;;;;;;13.58;65.69;99810.94;4363806;32;35124;-69
2022/05/31 01:09:28;;;;;;;4.45;2.80;;;;;;;13.53;65.87;99813.66;4350236;32;33838;-69
2022/05/31 01:12:03;;;;;;;3.83;2.60;;;;;;;13.58;65.31;99810.94;4364158;32;32002;-68
2022/05/31 01:14:34;;;;;;;4.82;2.85;;;;;;;13.48;65.39;99811.75;4363288;32;33195;-69
2022/05/31 01:17:13;;;;;;;4.90;2.70;;;;;;;13.54;65.22;99816.13;4363818;32;32431;-69
2022/05/31 01:19:56;;;;;;;3.90;2.90;;;;;;;13.58;65.13;99818.31;4350556;32;33679;-69
2022/05/31 01:22:32;;;;;;;5.37;3.00;;;;;;;13.77;64.23;99816.75;4363295;32;34146;-68
2022/05/31 01:25:09;;;;;;;3.62;2.65;;;;;;;13.64;64.70;99817.25;4350568;32;34047;-69
2022/05/31 01:27:58;;;;;;;4.53;3.17;;;;;;;13.34;65.58;99814.12;4350225;32;35025;-68
2022/05/31 01:30:28;;;;;;;3.58;2.95;;;;;;;12.91;67.19;99823.38;4363540;32;34667;-68
2022/05/31 01:33:05;;;;;;;4.90;3.42;;;;;;;13.02;67.01;99816.09;4363758;32;34205;-69
2022/05/31 01:35:34;;;;;;;3.42;2.60;;;;;;;12.80;68.00;99824.41;4349440;32;34097;-67
2022/05/31 01:38:07;;;;;;;4.65;2.85;;;;;;;13.18;66.60;99827.94;4349760;32;34197;-68
2022/05/31 01:40:57;;;;;;;3.95;3.00;;;;;;;12.80;67.89;99830.66;4350339;32;34661;-69
2022/05/31 01:43:24;;;;;;;4.60;3.22;;;;;;;12.69;68.06;99821.59;4363398;32;33283;-68
2022/05/31 01:45:58;;;;;;;5.43;2.90;;;;;;;13.06;66.88;99830.84;4363468;32;34547;-69
2022/05/31 01:48:27;;;;;;;4.30;3.40;;;;;;;13.13;66.23;99825.97;4363406;32;34968;-68
2022/05/31 01:50:57;;;;;;;6.22;3.35;;;;;;;12.64;67.76;99837.09;4349506;32;33867;-68
2022/05/31 01:53:24;;;;;;;4.28;2.87;;;;;;;13.01;66.20;99831.63;4350291;32;34209;-68
2022/05/31 01:55:52;;;;;;;5.07;3.55;;;;;;;13.32;64.53;99832.63;4363252;32;33663;-67
2022/05/31 01:58:23;;;;;;;3.83;3.00;;;;;;;13.51;63.52;99830.28;4363568;32;34260;-68
2022/05/31 02:00:51;;;;;;;4.68;2.92;;;;;;;13.42;63.34;99833.78;4350092;32;33627;-68
2022/05/31 02:03:20;;;;;;;3.95;3.00;;;;;;;13.19;63.97;99840.44;4363650;32;34010;-69
2022/05/31 02:05:52;;;;;;;3.80;2.92;;;;;;;13.07;64.91;99835.22;4349594;32;34120;-69
2022/05/31 02:08:22;;;;;;;4.12;2.70;;;;;;;12.94;65.51;99836.50;4363535;32;34297;-69
2022/05/31 02:10:49;;;;;;;3.70;2.65;;;;;;;12.44;67.34;99837.72;4362327;32;34652;-69
2022/05/31 02:13:18;;;;;;;4.50;3.00;;;;;;;12.31;68.10;99837.09;4363847;32;33509;-69
2022/05/31 02:15:46;;;;;;;4.30;3.50;;;;;;;12.67;67.03;99845.53;4363471;32;34006;-67
2022/05/31 02:19:15;;;;;;;4.68;3.37;;;;;;;13.05;66.01;99845.56;4363576;32;32488;-69
2022/05/31 02:21:11;;;;;;;4.25;3.05;;;;;;;12.92;66.65;99839.47;4363066;32;33007;-69
2022/05/31 02:23:39;;;;;;;4.55;3.22;;;;;;;12.61;67.82;99834.88;4363536;32;33483;-68
2022/05/31 02:26:07;;;;;;;4.12;3.42;;;;;;;12.11;69.30;99836.88;4363195;32;32894;-68
2022/05/31 02:28:35;;;;;;;6.53;3.30;;;;;;;12.45;68.23;99837.47;4363275;32;34744;-69
2022/05/31 02:31:02;;;;;;;5.70;3.37;;;;;;;12.82;66.52;99842.13;4363419;32;34177;-69
2022/05/31 02:33:29;;;;;;;6.05;4.07;;;;;;;12.60;67.25;99841.41;4363040;32;34167;-68
2022/05/31 02:35:57;;;;;;;4.90;3.25;;;;;;;12.92;65.96;99841.37;4362500;32;33044;-69
2022/05/31 02:38:24;;;;;;;5.05;3.50;;;;;;;12.91;65.63;99839.72;4363454;32;34068;-69
2022/05/31 02:40:52;;;;;;;4.57;3.35;;;;;;;12.83;66.38;99845.66;4363163;32;33940;-68
2022/05/31 02:43:19;;;;;;;5.85;3.75;;;;;;;13.03;65.54;99847.72;4363176;32;33761;-68
2022/05/31 02:45:47;;;;;;;5.32;3.83;;;;;;;12.98;66.13;99847.66;4363135;32;34848;-68
2022/05/31 02:48:14;;;;;;;5.15;3.33;;;;;;;12.41;68.14;99849.13;4363436;32;35080;-67
2022/05/31 02:50:41;;;;;;;5.05;3.95;;;;;;;12.71;67.50;99846.66;4363190;32;34035;-70
2022/05/31 02:53:09;;;;;;;5.28;3.53;;;;;;;12.90;66.33;99849.81;4363492;32;33618;-70
2022/05/31 02:55:36;;;;;;;4.25;3.55;;;;;;;12.45;67.96;99853.81;4363147;32;33778;-68
2022/05/31 02:58:11;;;;;;;4.70;3.37;;;;;;;12.45;68.25;99853.81;4363054;32;33865;-69
2022/05/31 03:00:43;;;;;;;5.95;4.07;;;;;;;12.85;66.65;99852.50;4363089;32;32245;-67
2022/05/31 03:03:14;;;;;;;6.18;3.60;;;;;;;12.93;66.04;99845.72;4363171;32;36164;-68
2022/05/31 03:05:43;;;;;;;6.07;3.55;;;;;;;13.08;65.69;99847.75;4363002;32;32410;-67
2022/05/31 03:08:11;;;;;;;6.22;3.92;;;;;;;13.14;65.56;99849.41;4363119;32;34959;-68
2022/05/31 03:10:47;;;;;;;5.20;3.40;;;;;;;13.02;66.11;99846.88;4362908;32;33598;-67
2022/05/31 03:13:18;;;;;;;4.93;3.60;;;;;;;13.08;66.28;99843.09;4349555;32;34196;-67
2022/05/31 03:15:46;;;;;;;5.15;3.60;;;;;;;13.10;66.16;99845.56;4362783;32;34648;-67
2022/05/31 03:18:19;;;;;;;4.97;3.30;;;;;;;13.27;65.77;99848.94;4362757;32;34288;-67
2022/05/31 03:20:51;;;;;;;3.70;3.00;;;;;;;13.44;65.16;99842.53;4349637;32;34012;-67
2022/05/31 03:23:27;;;;;;;4.72;3.03;;;;;;;13.46;64.89;99846.63;4340772;32;33588;-66
2022/05/31 03:25:55;;;;;;;4.80;3.30;;;;;;;13.68;63.84;99842.91;4342371;32;33926;-67
2022/05/31 03:28:23;;;;;;;6.00;3.20;;;;;;;13.83;63.37;99842.94;4339847;32;34015;-67
2022/05/31 03:30:51;;;;;;;4.00;2.87;;;;;;;14.02;62.95;99842.47;4355159;32;34140;-67
2022/05/31 03:33:25;;;;;;;4.00;2.93;;;;;;;13.80;63.76;99846.22;4354930;32;33622;-67
2022/05/31 03:35:55;;;;;;;4.20;2.90;;;;;;;14.16;63.48;99840.84;4342123;32;33900;-67
2022/05/31 03:38:23;;;;;;;4.87;3.10;;;;;;;14.67;61.25;99843.66;4355254;32;34886;-67
2022/05/31 03:40:57;;;;;;;4.30;2.90;;;;;;;15.02;60.04;99846.63;4354488;32;34054;-66
2022/05/31 03:43:31;;;;;;;4.30;2.95;;;;;;;15.25;59.78;99848.75;4354770;32;33470;-68
2022/05/31 03:46:12;;;;;;;3.42;2.72;;;;;;;15.48;59.85;99849.22;4354826;32;32214;-68
2022/05/31 03:48:41;;;;;;;4.55;2.72;;;;;;;15.35;59.91;99853.38;4356139;32;35102;-68
2022/05/31 03:51:11;;;;;;;4.65;3.05;;;;;;;15.93;57.90;99852.88;4362313;32;33854;-67
2022/05/31 03:53:39;;;;;;;5.30;2.72;;;;;;;16.24;56.94;99853.53;4362284;32;34163;-67
2022/05/31 03:56:12;;;;;;;6.95;3.03;;;;;;;16.44;56.51;99858.06;4362407;32;34652;-68
2022/05/31 03:58:40;;;;;;;3.70;2.80;;;;;;;16.74;55.89;99858.91;4349112;32;35169;-68
2022/05/31 04:01:08;;;;;;;5.35;2.65;;;;;;;16.97;55.19;99860.91;4361824;32;33500;-67
2022/05/31 04:03:36;;;;;;;4.30;2.80;;;;;;;16.47;57.99;99857.47;4357549;32;33506;-70
2022/05/31 04:06:05;;;;;;;5.43;2.97;;;;;;;17.03;55.85;99864.44;4361032;32;34636;-69
2022/05/31 04:08:32;;;;;;;4.00;2.87;;;;;;;17.41;55.67;99867.34;4348902;32;34221;-66
2022/05/31 04:11:01;;;;;;;4.25;3.00;;;;;;;17.55;54.91;99868.25;4362113;32;34537;-66
2022/05/31 04:13:29;;;;;;;4.53;3.15;;;;;;;18.08;52.78;99875.59;4362176;32;33591;-67
2022/05/31 04:16:11;;;;;;;4.22;2.22;;;;;;;18.35;52.68;99872.16;4361982;32;34012;-72
2022/05/31 04:18:40;;;;;;;3.83;2.30;;;;;;;18.74;51.22;99865.50;4348413;32;34158;-71
2022/05/31 04:21:11;;;;;;;3.05;2.28;;;;;;;18.92;51.29;99872.13;4348817;32;34517;-66
2022/05/31 04:26:30;;;;;;;2.95;2.03;;;;;;;19.49;50.13;99868.34;4361857;32;33821;-75
2022/05/31 04:28:59;;;;;;;4.47;1.87;;;;;;;19.76;49.39;99859.28;4359231;32;33375;-68
2022/05/31 04:31:27;;;;;;;3.40;2.30;;;;;;;20.06;48.99;99864.16;4360860;32;32370;-69
2022/05/31 04:34:06;;;;;;;2.08;1.70;;;;;;;20.36;48.04;99859.03;4360174;32;32008;-70
2022/05/31 04:36:34;;;;;;;2.37;1.80;;;;;;;20.82;47.14;99863.50;4362446;32;33912;-68
2022/05/31 04:39:03;;;;;;;3.22;2.03;;;;;;;20.79;47.05;99857.78;4362035;32;34268;-68
2022/05/31 04:41:32;;;;;;;3.08;1.65;;;;;;;21.18;46.90;99859.78;4349668;32;34177;-67
2022/05/31 04:44:04;;;;;;;3.90;2.08;;;;;;;20.23;50.20;99859.91;4359131;32;33588;-69
2022/05/31 04:46:32;;;;;;;2.62;1.90;;;;;;;19.62;50.89;99860.06;4359784;32;34706;-68
2022/05/31 04:49:02;;;;;;;2.87;1.92;;;;;;;20.94;48.56;99853.81;4360975;32;33997;-69
2022/05/31 04:51:32;;;;;;;4.95;2.10;;;;;;;21.26;47.00;99855.44;4361807;32;34030;-68
2022/05/31 04:54:04;;;;;;;3.95;2.08;;;;;;;21.01;47.67;99860.50;4348663;32;34092;-67
2022/05/31 04:56:34;;;;;;;3.12;2.22;;;;;;;20.86;48.05;99858.13;4349123;32;33846;-68
2022/05/31 04:59:03;;;;;;;3.47;2.40;;;;;;;21.71;45.33;99860.84;4348778;32;34064;-68
2022/05/31 05:01:30;;;;;;;2.87;2.15;;;;;;;22.44;43.80;99861.13;4347371;33;34157;-67
2022/05/31 05:03:58;;;;;;;3.35;2.20;;;;;;;21.69;45.81;99858.41;4346635;33;33585;-68
2022/05/31 05:06:31;;;;;;;3.78;2.35;;;;;;;21.84;45.95;99859.09;4347156;33;33840;-66
2022/05/31 05:08:59;;;;;;;3.50;2.00;;;;;;;21.26;47.38;99852.69;4347277;33;34355;-68
2022/05/31 05:11:27;;;;;;;3.83;2.20;;;;;;;21.19;47.61;99850.38;4347772;33;33802;-67
2022/05/31 05:13:56;;;;;;;2.65;2.03;;;;;;;21.66;45.49;99858.22;4347169;33;33231;-68
2022/05/31 05:16:25;;;;;;;3.72;2.17;;;;;;;21.02;48.60;99858.56;4333587;33;32126;-68
2022/05/31 05:18:55;;;;;;;3.72;2.20;;;;;;;21.48;45.87;99860.91;4334085;33;34308;-67
2022/05/31 05:21:23;;;;;;;4.03;2.20;;;;;;;21.82;45.92;99859.41;4334303;33;33935;-67
2022/05/31 05:23:51;;;;;;;3.53;2.40;;;;;;;22.39;43.92;99869.56;4347727;33;33453;-68
2022/05/31 05:26:25;;;;;;;2.42;2.12;;;;;;;22.80;42.88;99867.44;4347760;33;33650;-68
2022/05/31 05:31:41;;;;;;;3.58;2.35;;;;;;;21.46;46.64;99868.69;4347114;33;34672;-66
2022/05/31 05:34:26;;;;;;;3.53;2.10;;;;;;;20.88;47.92;99867.75;4347600;33;34759;-67
2022/05/31 05:36:54;;;;;;;2.25;1.70;;;;;;;21.06;47.96;99868.66;4347515;33;33624;-67
2022/05/31 05:39:22;;;;;;;2.47;1.60;;;;;;;20.22;47.78;99863.81;4347491;33;34181;-67
2022/05/31 05:41:52;;;;;;;3.22;1.77;;;;;;;20.04;49.14;99860.88;4347453;33;33306;-67
2022/05/31 05:44:22;;;;;;;3.40;1.65;;;;;;;20.58;49.80;99874.00;4346933;33;33960;-68
2022/05/31 05:46:50;;;;;;;2.75;1.87;;;;;;;20.87;47.67;99863.34;4346988;33;34632;-67
2022/05/31 05:49:17;;;;;;;3.97;2.08;;;;;;;21.36;47.09;99859.84;4346634;33;33691;-68
2022/05/31 05:51:46;;;;;;;2.55;1.90;;;;;;;21.60;47.96;99860.31;4347370;33;34574;-66
2022/05/31 05:54:18;;;;;;;4.90;2.20;;;;;;;22.65;44.07;99866.00;4347317;33;32802;-67
2022/05/31 05:56:51;;;;;;;3.22;1.95;;;;;;;23.01;41.88;99868.41;4347319;33;34039;-66
2022/05/31 05:59:24;;;;;;;2.65;1.95;;;;;;;23.23;42.08;99875.66;4349377;32;32624;-69
2022/05/31 06:02:03;;;;;;;3.70;2.15;;;;;;;23.76;40.01;99879.06;4361768;32;32376;-68
2022/05/31 06:04:59;;;;;;;1.95;1.60;;;;;;;23.87;39.81;99876.72;4362002;32;33884;-69
2022/05/31 06:07:36;;;;;;;2.65;1.73;;;;;;;24.23;38.11;99873.34;4363454;32;33702;-69
2022/05/31 06:10:10;;;;;;;2.08;1.55;;;;;;;23.99;38.60;99881.53;4363666;32;34227;-69
2022/05/31 06:12:40;;;;;;;2.00;1.40;;;;;;;23.46;39.65;99879.00;4363068;32;34610;-70
2022/05/31 06:15:13;;;;;;;1.83;1.60;;;;;;;23.58;40.01;99886.59;4363458;32;33474;-68
2022/05/31 06:17:44;;;;;;;2.62;1.60;;;;;;;23.67;38.76;99890.16;4363298;32;34010;-69
2022/05/31 06:20:13;;;;;;;2.45;1.67;;;;;;;23.33;40.81;99888.34;4349935;32;34157;-70
2022/05/31 06:22:41;;;;;;;2.67;1.60;;;;;;;22.84;40.26;99879.47;4349894;32;34866;-69
2022/05/31 06:25:13;;;;;;;1.45;1.20;;;;;;;22.55;40.45;99891.19;4349679;32;33369;-70
2022/05/31 06:27:42;;;;;;;2.15;1.62;;;;;;;23.25;40.43;99886.41;4350250;32;34667;-70
2022/05/31 06:30:11;;;;;;;2.20;1.45;;;;;;;23.68;40.66;99885.44;4350196;32;34302;-70
2022/05/31 06:32:39;;;;;;;2.40;1.48;;;;;;;23.49;39.05;99889.41;4360867;32;33961;-68
2022/05/31 06:35:07;;;;;;;3.17;1.45;;;;;;;23.50;39.38;99893.00;4363206;32;34392;-72
2022/05/31 06:37:35;;;;;;;3.75;1.90;;;;;;;24.40;37.55;99891.84;4363119;32;33626;-70
2022/05/31 06:40:08;;;;;;;1.98;1.50;;;;;;;24.60;37.00;99900.50;4363458;32;34025;-70
2022/05/31 06:42:37;;;;;;;2.05;1.58;;;;;;;25.12;36.29;99908.38;4363377;32;33560;-71
2022/05/31 06:45:12;;;;;;;1.95;1.23;;;;;;;25.50;35.20;99901.75;4350564;32;32869;-69
2022/05/31 06:47:39;;;;;;;1.98;1.65;;;;;;;25.56;34.69;99908.69;4363366;32;34570;-74
2022/05/31 06:50:12;;;;;;;2.15;1.58;;;;;;;24.99;36.28;99910.28;4362985;32;33877;-70
2022/05/31 06:58:17;;;;;;;2.58;1.73;;;;;;;24.37;38.21;99903.63;4360280;32;34012;-69
2022/05/31 07:00:45;;;;;;;3.28;1.50;;;;;;;24.58;35.48;99897.25;4361576;32;34283;-72
2022/05/31 07:03:13;;;;;;;1.67;1.52;;;;;;;24.62;36.12;99890.72;4359315;32;33498;-68
2022/05/31 07:05:40;;;;;;;2.20;1.60;;;;;;;24.36;36.38;99893.66;4361780;32;33499;-70
2022/05/31 07:08:13;;;;;;;1.75;1.37;;;;;;;24.86;37.03;99897.50;4361892;32;34035;-69
2022/05/31 07:10:44;;;;;;;2.40;1.50;;;;;;;25.11;36.55;99896.44;4361796;32;33955;-68
2022/05/31 07:13:13;;;;;;;2.40;1.65;;;;;;;25.81;34.59;99903.97;4361961;32;32502;-68
2022/05/31 07:15:45;;;;;;;1.75;1.37;;;;;;;26.00;33.96;99889.50;4361489;32;33009;-69
2022/05/31 07:18:36;;;;;;;2.42;1.37;;;;;;;26.22;34.30;99893.78;4361502;32;32428;-70
2022/05/31 07:21:04;;;;;;;2.45;1.50;;;;;;;27.29;32.46;99893.25;4361718;32;34777;-70
2022/05/31 07:23:31;;;;;;;1.58;1.20;;;;;;;27.10;33.19;99896.69;4361806;32;34433;-69
2022/05/31 07:25:59;;;;;;;2.28;1.33;;;;;;;26.36;34.63;99896.97;4361960;32;34259;-69
2022/05/31 07:28:48;;;;;;;3.15;1.80;;;;;;;25.15;34.01;99891.81;4361736;32;34756;-70
2022/05/31 07:31:16;;;;;;;2.53;1.65;;;;;;;24.75;35.17;99903.50;4361763;32;34137;-70
2022/05/31 07:33:44;;;;;;;2.53;1.62;;;;;;;25.01;36.22;99904.38;4361285;32;34945;-69
2022/05/31 07:36:12;;;;;;;2.55;1.73;;;;;;;24.21;36.35;99897.88;4361457;32;34229;-69
2022/05/31 07:38:41;;;;;;;3.00;1.83;;;;;;;23.85;37.02;99904.75;4361586;32;33759;-70
2022/05/31 07:41:09;;;;;;;2.53;1.67;;;;;;;23.25;38.05;99898.28;4361640;32;34872;-69
2022/05/31 07:43:37;;;;;;;1.85;1.60;;;;;;;23.22;38.82;99906.44;4359232;32;33956;-68
2022/05/31 07:46:07;;;;;;;2.10;1.65;;;;;;;23.67;38.44;99900.41;4348043;32;33813;-68
2022/05/31 07:48:36;;;;;;;3.95;1.92;;;;;;;23.66;37.85;99907.09;4347730;32;34491;-69
2022/05/31 07:51:07;;;;;;;3.05;2.15;;;;;;;23.40;38.92;99905.25;4348319;32;32323;-69
2022/05/31 07:53:35;;;;;;;2.47;1.75;;;;;;;23.02;40.47;99914.28;4361243;32;33695;-68
2022/05/31 07:56:09;;;;;;;4.65;2.22;;;;;;;22.84;39.61;99909.91;4377412;32;33359;-70
2022/05/31 07:58:42;;;;;;;4.03;1.98;;;;;;;23.21;39.06;99913.94;4375700;32;32197;-68
2022/05/31 08:01:13;;;;;;;4.80;2.58;;;;;;;23.47;39.56;99910.28;4377454;32;32572;-69
2022/05/31 08:03:42;;;;;;;3.30;2.28;;;;;;;23.15;38.91;99906.94;4377536;32;33651;-70
2022/05/31 08:06:13;;;;;;;3.53;2.28;;;;;;;22.90;40.07;99911.38;4363631;32;34228;-69
2022/05/31 08:08:41;;;;;;;4.28;2.60;;;;;;;23.30;40.32;99914.75;4364728;32;34627;-70
2022/05/31 08:11:15;;;;;;;5.00;2.45;;;;;;;23.10;40.82;99921.75;4379122;32;34079;-68
2022/05/31 08:13:42;;;;;;;3.35;2.28;;;;;;;23.06;39.99;99926.34;4365923;32;33596;-69
2022/05/31 08:16:12;;;;;;;3.35;2.42;;;;;;;22.86;39.22;99927.78;4379134;32;34430;-68
2022/05/31 08:18:40;;;;;;;3.75;2.47;;;;;;;22.76;39.43;99925.34;4379234;32;33882;-69
2022/05/31 08:21:10;;;;;;;3.90;2.37;;;;;;;23.20;40.75;99925.34;4378985;32;34971;-68
2022/05/31 08:23:38;;;;;;;3.37;2.12;;;;;;;23.19;41.08;99918.97;4379148;32;33777;-68
2022/05/31 08:26:07;;;;;;;2.85;2.40;;;;;;;22.75;40.01;99926.50;4378829;32;33456;-70
2022/05/31 08:28:35;;;;;;;3.62;2.40;;;;;;;22.82;41.19;99920.47;4379042;32;33830;-69
2022/05/31 08:31:05;;;;;;;5.15;2.97;;;;;;;22.03;42.34;99927.84;4379001;32;35075;-69
2022/05/31 08:33:33;;;;;;;4.22;2.60;;;;;;;21.83;42.83;99920.97;4378746;32;33940;-71
2022/05/31 08:36:01;;;;;;;6.60;2.85;;;;;;;21.10;45.74;99916.56;4379085;32;33222;-71
2022/05/31 08:38:31;;;;;;;4.95;3.00;;;;;;;21.73;43.88;99924.00;4378889;32;34682;-70
2022/05/31 08:41:09;;;;;;;4.47;2.45;;;;;;;22.22;42.91;99927.56;4365258;32;34297;-71
2022/05/31 08:43:47;;;;;;;3.95;2.62;;;;;;;22.41;43.54;99933.66;4378970;32;34690;-70
2022/05/31 08:46:32;;;;;;;4.32;2.42;;;;;;;22.68;41.75;99928.97;4366975;32;33432;-70
2022/05/31 08:51:52;;;;;;;4.20;2.75;;;;;;;22.87;42.25;99929.44;4363577;32;33809;-69
2022/05/31 08:52:26;;;;;;;3.97;2.50;;;;;;;22.59;42.53;99923.44;4364102;32;34273;-69
2022/05/31 08:57:51;;;;;;;5.68;2.40;;;;;;;22.41;43.07;99925.34;4352550;32;34169;-69
2022/05/31 09:00:28;;;;;;;3.05;2.15;;;;;;;22.44;43.30;99924.72;4362897;32;34045;-69
2022/05/31 09:03:01;;;;;;;4.12;2.33;;;;;;;22.47;43.42;99915.78;4363696;32;34268;-68
2022/05/31 09:05:43;;;;;;;4.32;2.40;;;;;;;22.01;42.78;99919.06;4348027;32;34587;-66
2022/05/31 09:08:24;;;;;;;4.28;2.47;;;;;;;22.52;42.20;99923.09;4350104;32;34303;-68
2022/05/31 09:10:59;;;;;;;4.03;2.30;;;;;;;22.21;43.05;99921.25;4363692;32;33744;-67
2022/05/31 09:13:53;;;;;;;3.40;2.22;;;;;;;22.55;42.53;99913.31;4363521;32;34945;-67
2022/05/31 09:16:40;;;;;;;3.50;2.42;;;;;;;22.02;44.91;99913.22;4350907;32;33735;-68
2022/05/31 09:19:10;;;;;;;3.80;2.42;;;;;;;22.57;42.82;99916.56;4363539;32;33546;-67
2022/05/31 09:21:41;;;;;;;5.30;2.45;;;;;;;21.99;42.78;99913.06;4350274;32;34013;-68
2022/05/31 09:24:14;;;;;;;4.32;2.70;;;;;;;22.40;43.19;99907.16;4349839;32;35056;-67
2022/05/31 09:27:08;;;;;;;4.43;2.65;;;;;;;22.34;42.60;99910.41;4363695;32;34066;-68
2022/05/31 09:29:58;;;;;;;4.28;2.72;;;;;;;22.49;42.46;99915.44;4363953;32;33356;-68
2022/05/31 09:32:59;;;;;;;4.07;2.62;;;;;;;22.51;42.48;99911.22;4349927;32;34793;-68
2022/05/31 09:35:45;;;;;;;4.43;2.50;;;;;;;22.05;44.33;99911.75;4350581;32;35024;-67
2022/05/31 09:38:48;;;;;;;4.70;2.50;;;;;;;21.65;44.22;99907.09;4363706;32;33382;-68
2022/05/31 09:41:53;;;;;;;5.43;2.53;;;;;;;21.73;44.89;99915.72;4363882;32;33638;-66
2022/05/31 09:44:37;;;;;;;5.00;2.65;;;;;;;21.88;44.54;99910.59;4362088;32;34681;-68
2022/05/31 09:47:14;;;;;;;4.37;2.08;;;;;;;21.85;42.62;99911.22;4363358;32;34222;-68
2022/05/31 09:49:45;;;;;;;3.58;2.20;;;;;;;22.08;43.08;99913.91;4349670;32;34900;-68
2022/05/31 09:52:34;;;;;;;3.83;2.37;;;;;;;22.22;44.77;99905.47;4363367;32;33612;-73
2022/05/31 09:58:00;;;;;;;4.05;2.50;;;;;;;22.59;43.85;99909.59;4363629;32;34881;-78
2022/05/31 10:00:32;;;;;;;4.03;2.50;;;;;;;22.15;44.31;99905.94;4363250;32;32607;-69
2022/05/31 10:03:13;;;;;;;5.35;2.90;;;;;;;22.19;44.45;99911.66;4363537;32;33484;-71
2022/05/31 10:05:42;;;;;;;3.72;2.60;;;;;;;22.28;43.78;99912.50;4349856;32;33754;-66
2022/05/31 10:08:15;;;;;;;3.33;2.22;;;;;;;22.17;44.93;99900.09;4363356;32;34209;-70
2022/05/31 10:10:47;;;;;;;3.25;2.40;;;;;;;21.80;45.93;99902.28;4349833;32;33643;-70
2022/05/31 10:13:35;;;;;;;5.50;2.47;;;;;;;22.25;43.86;99900.16;4363690;32;33459;-70
2022/05/31 10:16:22;;;;;;;4.15;2.58;;;;;;;22.22;44.74;99894.41;4349853;32;33815;-70
2022/05/31 10:18:52;;;;;;;3.72;2.20;;;;;;;22.67;43.33;99894.13;4349823;32;34319;-70
2022/05/31 10:21:31;;;;;;;3.40;2.25;;;;;;;22.85;42.87;99893.00;4363352;32;33994;-70
2022/05/31 10:24:05;;;;;;;4.93;2.35;;;;;;;22.29;44.53;99890.06;4349817;32;33531;-68
2022/05/31 10:26:40;;;;;;;4.68;2.85;;;;;;;22.29;43.98;99880.97;4363457;32;32316;-70
2022/05/31 10:29:24;;;;;;;2.75;2.22;;;;;;;22.01;43.08;99885.91;4363329;32;34194;-69
2022/05/31 10:31:53;;;;;;;3.62;2.30;;;;;;;22.62;43.27;99892.34;4362578;32;34018;-68
2022/05/31 10:34:40;;;;;;;3.00;2.00;;;;;;;21.47;46.31;99886.91;4363368;32;34321;-69
2022/05/31 10:37:28;;;;;;;3.22;1.98;;;;;;;22.39;42.86;99888.91;4363013;32;34572;-69
2022/05/31 10:40:09;;;;;;;3.85;1.98;;;;;;;21.95;44.58;99882.50;4362897;32;34249;-70
2022/05/31 10:42:41;;;;;;;3.42;2.10;;;;;;;21.96;44.15;99888.84;4363296;32;34144;-69
2022/05/31 10:45:20;;;;;;;2.85;1.98;;;;;;;22.10;44.64;99881.25;4350086;32;33681;-70
2022/05/31 10:47:48;;;;;;;2.22;1.95;;;;;;;22.19;46.10;99882.06;4349921;32;33995;-69
2022/05/31 10:50:16;;;;;;;3.35;2.30;;;;;;;22.47;42.67;99882.59;4362963;32;34317;-70
2022/05/31 10:52:53;;;;;;;3.80;2.37;;;;;;;22.66;43.72;99887.00;4363021;32;34559;-70
2022/05/31 10:55:33;;;;;;;4.22;2.30;;;;;;;23.05;42.83;99888.75;4345052;32;160360;-68
2022/05/31 10:58:32;;;;;;;4.53;2.40;;;;;;;22.41;44.04;99888.59;4361130;32;34883;-69
2022/05/31 11:01:13;;;;;;;3.62;2.30;;;;;;;22.53;44.65;99889.59;4349367;32;34976;-70
2022/05/31 11:03:58;;;;;;;2.37;1.60;;;;;;;22.87;43.85;99889.88;4363059;32;34178;-69
2022/05/31 11:06:31;;;;;;;4.03;2.47;;;;;;;23.00;44.02;99890.81;4349528;32;32976;-67
2022/05/31 11:12:23;;;;;;;2.50;2.17;;;;;;;22.77;42.84;99888.28;4362857;32;34319;-67
2022/05/31 11:15:06;;;;;;;2.87;1.92;;;;;;;22.77;42.51;99882.75;4362978;32;33983;-66
2022/05/31 11:17:52;;;;;;;3.83;1.98;;;;;;;22.97;42.96;99872.94;4362748;32;33493;-66
2022/05/31 11:20:30;;;;;;;2.90;2.00;;;;;;;22.82;43.64;99873.47;4362939;32;34805;-69
2022/05/31 11:23:16;;;;;;;3.35;2.12;;;;;;;22.98;43.28;99876.50;4349211;32;34320;-74
2022/05/31 11:26:12;;;;;;;3.78;2.22;;;;;;;23.51;41.16;99878.81;4362956;32;33855;-67
2022/05/31 11:29:03;;;;;;;;;;;;;;;23.47;41.69;99872.31;4351974;32;32991;-66
2022/05/31 11:31:42;;;;;;;3.92;2.10;;;;;;;23.22;42.75;99865.75;4362674;32;34362;-67
2022/05/31 11:34:44;;;;;;;4.68;1.90;;;;;;;23.69;41.33;99856.56;4362749;32;35084;-66
2022/05/31 11:37:31;;;;;;;3.37;2.10;;;;;;;23.43;42.01;99854.72;4346345;32;33642;-67
2022/05/31 11:40:14;;;;;;;3.28;1.83;;;;;;;23.47;41.52;99869.53;4349103;32;34176;-67
2022/05/31 11:43:08;;;;;;;2.92;2.00;;;;;;;23.89;41.18;99855.84;4362394;32;33981;-66
2022/05/31 11:45:48;;;;;;;3.75;2.53;;;;;;;23.83;39.58;99856.37;4362637;32;34922;-74
2022/05/31 11:48:20;;;;;;;3.10;2.08;;;;;;;23.79;39.44;99847.91;4349150;32;34060;-67
2022/05/31 11:51:19;;;;;;;3.08;2.22;;;;;;;23.59;39.98;99859.75;4360685;32;34269;-66
2022/05/31 11:54:04;;;;;;;3.30;2.37;;;;;;;23.16;40.64;99861.53;4362564;32;34043;-68
2022/05/31 11:57:01;;;;;;;3.00;2.22;;;;;;;22.16;41.69;99848.72;4358879;32;34129;-69
2022/05/31 11:59:54;;;;;;;3.33;2.20;;;;;;;22.41;43.76;99850.72;4361451;32;33534;-71
2022/05/31 12:02:46;;;;;;;3.53;2.10;;;;;;;22.83;42.10;99845.47;4330380;33;33516;-70
2022/05/31 12:05:16;;;;;;;4.47;2.97;;;;;;;22.67;42.08;99842.38;4346066;33;34025;-71
2022/05/31 12:08:10;;;;;;;6.30;3.20;;;;;;;22.35;42.93;99845.69;4346060;33;34207;-66
2022/05/31 12:10:42;;;;;;;4.82;2.83;;;;;;;22.41;42.77;99842.41;4335488;33;34554;-71
2022/05/31 12:13:11;;;;;;;4.85;3.17;;;;;;;23.07;41.06;99844.94;4332494;33;33916;-70
2022/05/31 12:15:43;;;;;;;4.10;2.90;;;;;;;22.27;41.63;99828.78;4346030;33;33679;-72
2022/05/31 12:18:20;;;;;;;4.53;3.20;;;;;;;22.06;44.33;99819.47;4332919;33;34025;-66
2022/05/31 12:21:04;;;;;;;5.25;2.90;;;;;;;22.35;43.42;99823.56;4330751;33;33715;-66
2022/05/31 12:23:40;;;;;;;7.73;3.70;;;;;;;22.60;41.61;99819.97;4344773;33;33140;-72
2022/05/31 12:26:21;;;;;;;5.07;3.05;;;;;;;22.18;42.71;99808.59;4345303;33;33592;-71